Time;durP1;ratioP1;P1;durP2;ratioP2;P2;SDS_P1;SDS_P2;PMS_P1;PMS_P2;Temp;Humidity;BMP_temperature;BMP_pressure;BME280_temperature;BME280_humidity;BME280_pressure;Samples;Min_cycle;Max_cycle;Signal;HPM_P1;HPM_P2
2023/09/21 00:03:41;;;;;;;7.35;5.10;;;;;;;;;;10453008;27;20085;-67
2023/09/21 00:08:40;;;;;;;5.75;4.22;;;;;;;;;;10456306;27;20499;-66
2023/09/21 00:13:39;;;;;;;7.47;4.82;;;;;;;;;;10456756;27;20075;-66
2023/09/21 00:18:41;;;;;;;10.13;4.85;;;;;;;;;;10457906;27;20450;-66
2023/09/21 00:23:41;;;;;;;11.57;5.07;;;;;;;;;;10456805;27;20507;-66
2023/09/21 00:28:40;;;;;;;5.40;4.70;;;;;;;;;;10454060;27;20086;-66
2023/09/21 00:33:41;;;;;;;6.13;4.25;;;;;;;;;;10453034;27;20081;-67
2023/09/21 00:38:39;;;;;;;6.20;4.95;;;;;;;;;;10454655;27;20507;-66
2023/09/21 00:43:41;;;;;;;7.80;4.65;;;;;;;;;;10440107;27;20082;-66
2023/09/21 00:48:42;;;;;;;8.35;4.85;;;;;;;;;;10455424;27;20072;-66
2023/09/21 00:53:44;;;;;;;9.93;5.28;;;;;;;;;;10452773;27;20082;-67
2023/09/21 00:58:45;;;;;;;7.68;5.13;;;;;;;;;;10453126;27;20070;-66
2023/09/21 01:03:46;;;;;;;10.68;4.95;;;;;;;;;;10453599;27;20187;-66
2023/09/21 01:08:45;;;;;;;5.70;4.68;;;;;;;;;;10454567;27;20074;-66
2023/09/21 01:13:44;;;;;;;5.13;4.70;;;;;;;;;;10432609;27;20088;-65
2023/09/21 01:18:42;;;;;;;9.35;4.93;;;;;;;;;;10451985;27;20062;-66
2023/09/21 01:23:45;;;;;;;11.40;6.25;;;;;;;;;;10445575;27;20510;-66
2023/09/21 01:28:46;;;;;;;10.30;6.55;;;;;;;;;;10441622;27;20087;-66
2023/09/21 01:33:44;;;;;;;12.23;6.72;;;;;;;;;;10455088;27;20067;-66
2023/09/21 01:38:46;;;;;;;10.13;7.35;;;;;;;;;;10454742;27;20071;-66
2023/09/21 01:43:45;;;;;;;8.48;7.55;;;;;;;;;;10456014;27;20070;-66
2023/09/21 01:48:44;;;;;;;12.73;7.95;;;;;;;;;;10447743;27;20082;-66
2023/09/21 01:53:45;;;;;;;8.73;7.45;;;;;;;;;;10444142;27;20078;-66
2023/09/21 01:58:44;;;;;;;9.10;7.13;;;;;;;;;;10461665;27;20547;-66
2023/09/21 02:03:44;;;;;;;13.32;7.68;;;;;;;;;;10442659;27;20510;-66
2023/09/21 02:08:45;;;;;;;11.00;7.75;;;;;;;;;;10461224;27;20081;-66
2023/09/21 02:13:43;;;;;;;9.27;6.22;;;;;;;;;;10460823;27;20070;-66
2023/09/21 02:18:42;;;;;;;11.40;7.75;;;;;;;;;;10457682;27;20062;-67
2023/09/21 02:23:41;;;;;;;11.52;7.55;;;;;;;;;;10461605;27;20063;-67
2023/09/21 02:28:40;;;;;;;15.52;7.45;;;;;;;;;;10458186;27;20104;-66
2023/09/21 02:33:42;;;;;;;9.68;6.50;;;;;;;;;;10453570;27;20071;-66
2023/09/21 02:38:41;;;;;;;8.50;6.53;;;;;;;;;;10453419;27;20068;-66
2023/09/21 02:43:41;;;;;;;11.40;6.32;;;;;;;;;;10442966;27;20043;-66
2023/09/21 02:48:40;;;;;;;9.23;6.40;;;;;;;;;;10460247;27;20643;-66
2023/09/21 02:53:42;;;;;;;11.85;7.30;;;;;;;;;;10459404;27;20452;-66
2023/09/21 02:58:42;;;;;;;10.02;7.20;;;;;;;;;;10461036;27;20082;-67
2023/09/21 03:03:41;;;;;;;10.10;8.13;;;;;;;;;;10457255;27;20070;-66
2023/09/21 03:08:41;;;;;;;11.73;7.90;;;;;;;;;;10453106;27;20667;-67
2023/09/21 03:13:40;;;;;;;14.95;7.47;;;;;;;;;;10440772;27;20074;-66
2023/09/21 03:18:41;;;;;;;11.55;6.97;;;;;;;;;;10460446;27;20063;-66
2023/09/21 03:23:41;;;;;;;12.23;6.88;;;;;;;;;;10440585;27;20087;-66
2023/09/21 03:28:40;;;;;;;15.55;7.88;;;;;;;;;;10456849;27;20078;-67
2023/09/21 03:33:40;;;;;;;19.63;7.88;;;;;;;;;;10438619;27;20542;-67
2023/09/21 03:38:39;;;;;;;13.05;7.43;;;;;;;;;;10432653;27;20435;-67
2023/09/21 03:43:38;;;;;;;12.77;7.72;;;;;;;;;;10456944;27;20075;-65
2023/09/21 03:48:37;;;;;;;12.00;8.50;;;;;;;;;;10449826;27;20077;-65
2023/09/21 03:53:39;;;;;;;10.90;7.90;;;;;;;;;;10457347;27;20152;-66
2023/09/21 03:58:37;;;;;;;11.30;8.02;;;;;;;;;;10439720;27;20077;-66
2023/09/21 04:03:36;;;;;;;14.20;7.15;;;;;;;;;;10457203;27;20078;-66
2023/09/21 04:08:35;;;;;;;10.23;7.15;;;;;;;;;;10446923;27;20074;-65
2023/09/21 04:13:35;;;;;;;10.07;7.13;;;;;;;;;;10440527;27;20087;-65
2023/09/21 04:18:35;;;;;;;15.13;6.57;;;;;;;;;;10441397;27;20300;-66
2023/09/21 04:23:34;;;;;;;9.57;7.00;;;;;;;;;;10432751;27;20073;-66
2023/09/21 04:28:32;;;;;;;11.20;6.72;;;;;;;;;;10435768;27;20074;-65
2023/09/21 04:33:33;;;;;;;8.35;7.53;;;;;;;;;;10445383;27;20082;-66
2023/09/21 04:38:32;;;;;;;16.13;7.80;;;;;;;;;;10438797;27;20081;-66
2023/09/21 04:43:32;;;;;;;11.05;7.05;;;;;;;;;;10431173;27;20070;-65
2023/09/21 04:48:33;;;;;;;18.80;8.50;;;;;;;;;;10431392;27;20063;-66
2023/09/21 04:53:32;;;;;;;10.93;6.43;;;;;;;;;;10445093;27;20077;-67
2023/09/21 04:58:30;;;;;;;9.38;6.82;;;;;;;;;;10442002;27;20067;-68
2023/09/21 05:03:28;;;;;;;13.23;7.15;;;;;;;;;;10433321;27;20082;-66
2023/09/21 05:08:29;;;;;;;12.23;7.03;;;;;;;;;;10435206;27;20058;-66
2023/09/21 05:13:28;;;;;;;10.13;6.60;;;;;;;;;;10438071;27;20444;-67
2023/09/21 05:18:29;;;;;;;12.30;7.18;;;;;;;;;;10459467;27;20074;-67
2023/09/21 05:23:28;;;;;;;10.50;6.85;;;;;;;;;;10465760;27;20526;-67
2023/09/21 05:28:27;;;;;;;9.73;6.55;;;;;;;;;;10461715;27;20071;-66
2023/09/21 05:33:25;;;;;;;8.30;7.40;;;;;;;;;;10459660;27;20066;-66
2023/09/21 05:38:24;;;;;;;10.57;6.97;;;;;;;;;;10465880;27;20062;-66
2023/09/21 05:43:23;;;;;;;11.07;7.10;;;;;;;;;;10467591;27;20069;-66
2023/09/21 05:48:23;;;;;;;11.20;6.50;;;;;;;;;;10463476;27;20729;-66
2023/09/21 05:53:22;;;;;;;8.98;7.30;;;;;;;;;;10461935;27;20070;-67
2023/09/21 05:58:20;;;;;;;8.63;6.40;;;;;;;;;;10463176;27;20496;-66
2023/09/21 06:03:20;;;;;;;9.20;5.97;;;;;;;;;;10459935;27;20070;-67
2023/09/21 06:08:19;;;;;;;6.28;5.35;;;;;;;;;;10461011;27;20081;-66
2023/09/21 06:13:18;;;;;;;8.82;6.07;;;;;;;;;;10460135;27;20081;-67
2023/09/21 06:18:17;;;;;;;9.60;5.38;;;;;;;;;;10463543;27;20467;-66
2023/09/21 06:23:17;;;;;;;7.70;5.70;;;;;;;;;;10457478;27;20081;-66
2023/09/21 06:28:17;;;;;;;7.45;5.65;;;;;;;;;;10464324;27;20089;-67
2023/09/21 06:33:15;;;;;;;7.65;5.78;;;;;;;;;;10461085;27;20511;-66
2023/09/21 06:38:13;;;;;;;6.40;5.80;;;;;;;;;;10462265;27;20063;-66
2023/09/21 06:43:16;;;;;;;10.15;7.20;;;;;;;;;;10461384;27;20626;-67
2023/09/21 06:48:14;;;;;;;23.13;7.30;;;;;;;;;;10466764;27;20561;-67
2023/09/21 06:53:13;;;;;;;11.65;6.43;;;;;;;;;;10466364;27;20507;-67
2023/09/21 06:58:11;;;;;;;9.52;7.90;;;;;;;;;;10459949;27;20078;-67
2023/09/21 07:03:12;;;;;;;9.10;6.43;;;;;;;;;;10457920;27;20070;-67
2023/09/21 07:08:11;;;;;;;11.07;7.05;;;;;;;;;;10461136;27;20067;-67
2023/09/21 07:13:09;;;;;;;13.05;6.72;;;;;;;;;;10457549;27;20074;-67
2023/09/21 07:18:08;;;;;;;15.80;6.30;;;;;;;;;;10458184;27;20110;-67
2023/09/21 07:23:08;;;;;;;10.40;6.35;;;;;;;;;;10437952;27;20074;-66
2023/09/21 07:28:06;;;;;;;16.05;5.28;;;;;;;;;;10464777;27;20527;-66
2023/09/21 07:33:06;;;;;;;10.93;5.80;;;;;;;;;;10457010;27;20086;-66
2023/09/21 07:38:05;;;;;;;9.32;5.20;;;;;;;;;;10460557;27;20077;-66
2023/09/21 07:43:06;;;;;;;5.82;5.03;;;;;;;;;;10441521;27;20097;-65
2023/09/21 07:48:05;;;;;;;12.10;5.00;;;;;;;;;;10463448;27;20081;-65
2023/09/21 07:53:04;;;;;;;12.82;5.43;;;;;;;;;;10456348;27;20062;-66
2023/09/21 07:58:03;;;;;;;11.63;5.70;;;;;;;;;;10464815;27;20659;-66
2023/09/21 08:03:03;;;;;;;9.18;5.88;;;;;;;;;;10460096;27;20127;-66
2023/09/21 08:08:01;;;;;;;15.75;5.88;;;;;;;;;;10457556;27;20113;-65
2023/09/21 08:13:01;;;;;;;17.65;5.97;;;;;;;;;;10446086;27;20074;-66
2023/09/21 08:18:00;;;;;;;10.10;5.53;;;;;;;;;;10459492;27;20077;-66
2023/09/21 08:23:00;;;;;;;12.00;6.50;;;;;;;;;;10452989;27;20066;-66
2023/09/21 08:27:59;;;;;;;8.38;5.55;;;;;;;;;;10433123;27;20081;-66
2023/09/21 08:32:58;;;;;;;12.80;5.45;;;;;;;;;;10457229;27;20085;-64
2023/09/21 08:37:56;;;;;;;14.48;5.72;;;;;;;;;;10460408;27;20515;-65
2023/09/21 08:42:57;;;;;;;16.23;6.00;;;;;;;;;;10457813;27;20066;-65
2023/09/21 08:47:56;;;;;;;11.73;5.25;;;;;;;;;;10462532;27;20507;-65
2023/09/21 08:52:55;;;;;;;14.45;5.10;;;;;;;;;;10455238;27;20058;-66
2023/09/21 08:57:54;;;;;;;9.70;6.65;;;;;;;;;;10453967;27;20059;-66
2023/09/21 09:02:54;;;;;;;10.20;5.70;;;;;;;;;;10452667;27;20078;-66
2023/09/21 09:07:52;;;;;;;14.93;5.93;;;;;;;;;;10456937;27;20070;-66
2023/09/21 09:13:03;;;;;;;10.40;4.90;;;;;;;;;;10449806;27;20070;-65
2023/09/21 09:18:04;;;;;;;12.65;6.55;;;;;;;;;;10448347;27;20071;-65
2023/09/21 09:23:02;;;;;;;11.73;5.57;;;;;;;;;;10451189;27;20471;-66
2023/09/21 09:28:02;;;;;;;14.15;5.78;;;;;;;;;;10448916;27;20534;-66
2023/09/21 09:33:02;;;;;;;9.23;6.03;;;;;;;;;;10452035;27;20077;-66
2023/09/21 09:38:02;;;;;;;16.20;6.07;;;;;;;;;;10435002;27;20097;-66
2023/09/21 09:43:00;;;;;;;10.07;4.82;;;;;;;;;;10452582;27;20074;-66
2023/09/21 09:48:01;;;;;;;12.57;5.35;;;;;;;;;;10435555;27;20081;-66
2023/09/21 09:53:05;;;;;;;7.05;4.95;;;;;;;;;;10442918;27;20079;-66
2023/09/21 09:58:05;;;;;;;14.32;4.95;;;;;;;;;;10448859;27;20530;-67
2023/09/21 10:03:05;;;;;;;13.07;5.45;;;;;;;;;;10452892;27;20062;-66
2023/09/21 10:08:07;;;;;;;11.80;5.68;;;;;;;;;;10464447;27;20494;-67
2023/09/21 10:13:06;;;;;;;8.43;4.78;;;;;;;;;;10462632;27;20071;-66
2023/09/21 10:18:05;;;;;;;8.63;5.70;;;;;;;;;;10462584;27;20066;-67
2023/09/21 10:23:09;;;;;;;11.27;5.55;;;;;;;;;;10453710;27;20082;-67
2023/09/21 10:28:27;;;;;;;10.55;5.40;;;;;;;;;;10461452;27;20082;-66
2023/09/21 10:33:26;;;;;;;12.20;4.70;;;;;;;;;;10445775;27;20071;-67
2023/09/21 10:38:26;;;;;;;7.85;4.78;;;;;;;;;;10460685;27;20059;-67
2023/09/21 10:43:43;;;;;;;18.05;6.55;;;;;;;;;;10458731;27;20058;-67
2023/09/21 10:48:41;;;;;;;10.73;6.10;;;;;;;;;;10459333;27;20062;-67
2023/09/21 10:53:42;;;;;;;7.70;4.60;;;;;;;;;;10456057;27;20086;-67
2023/09/21 10:58:41;;;;;;;6.85;4.13;;;;;;;;;;10454905;27;20444;-66
2023/09/21 11:03:42;;;;;;;6.18;4.35;;;;;;;;;;10461237;27;20077;-67
2023/09/21 11:08:41;;;;;;;8.10;4.47;;;;;;;;;;10460493;27;20067;-67
2023/09/21 11:13:40;;;;;;;9.65;5.25;;;;;;;;;;10457662;27;20067;-66
2023/09/21 11:18:38;;;;;;;7.70;4.07;;;;;;;;;;10457546;27;20079;-67
2023/09/21 11:23:37;;;;;;;6.75;4.28;;;;;;;;;;10458785;27;20078;-66
2023/09/21 11:28:39;;;;;;;9.13;4.95;;;;;;;;;;10454278;27;20075;-66
2023/09/21 11:33:41;;;;;;;13.90;5.13;;;;;;;;;;10455124;27;20424;-66
2023/09/21 11:38:41;;;;;;;7.13;4.53;;;;;;;;;;10454684;27;20217;-66
2023/09/21 11:43:42;;;;;;;11.05;4.10;;;;;;;;;;10457981;27;20077;-66
2023/09/21 11:48:43;;;;;;;21.60;5.22;;;;;;;;;;10460673;27;20058;-67
2023/09/21 11:53:45;;;;;;;6.78;4.50;;;;;;;;;;10462938;27;20078;-66
2023/09/21 11:58:45;;;;;;;11.35;5.93;;;;;;;;;;10452344;27;20089;-67
2023/09/21 12:03:43;;;;;;;9.95;4.20;;;;;;;;;;10453801;27;20062;-66
2023/09/21 12:08:42;;;;;;;9.05;4.25;;;;;;;;;;10461793;27;20055;-66
2023/09/21 12:13:42;;;;;;;8.95;4.25;;;;;;;;;;10461175;27;20058;-67
2023/09/21 12:18:43;;;;;;;8.00;4.18;;;;;;;;;;10456156;27;20077;-66
2023/09/21 12:23:42;;;;;;;6.88;3.97;;;;;;;;;;10461640;27;20537;-66
2023/09/21 12:28:42;;;;;;;10.18;4.57;;;;;;;;;;10446432;27;20707;-67
2023/09/21 12:33:42;;;;;;;9.70;4.05;;;;;;;;;;10451883;27;20070;-66
2023/09/21 12:38:41;;;;;;;5.97;3.75;;;;;;;;;;10453638;27;20490;-66
2023/09/21 12:43:40;;;;;;;11.13;4.10;;;;;;;;;;10450205;27;20070;-65
2023/09/21 12:48:38;;;;;;;7.47;4.05;;;;;;;;;;10451193;27;20069;-67
2023/09/21 12:53:38;;;;;;;7.97;3.75;;;;;;;;;;10450164;27;20081;-66
2023/09/21 12:58:36;;;;;;;8.90;4.60;;;;;;;;;;10455504;27;20099;-67
2023/09/21 13:03:35;;;;;;;7.47;4.18;;;;;;;;;;10448743;27;20063;-67
2023/09/21 13:08:33;;;;;;;9.00;4.80;;;;;;;;;;10447203;27;20062;-67
2023/09/21 13:13:34;;;;;;;7.45;3.92;;;;;;;;;;10452963;27;20070;-66
2023/09/21 13:18:33;;;;;;;6.00;3.90;;;;;;;;;;10448645;27;20075;-66
2023/09/21 13:23:31;;;;;;;10.68;3.90;;;;;;;;;;10453335;27;20078;-67
2023/09/21 13:28:29;;;;;;;9.57;3.80;;;;;;;;;;10447697;27;20079;-66
2023/09/21 13:33:31;;;;;;;5.50;3.55;;;;;;;;;;10432713;27;20075;-67
2023/09/21 13:38:30;;;;;;;10.50;3.55;;;;;;;;;;10451233;27;20066;-66
2023/09/21 13:43:28;;;;;;;6.90;3.95;;;;;;;;;;10462100;27;20070;-65
2023/09/21 13:48:27;;;;;;;12.65;3.78;;;;;;;;;;10457446;27;20074;-65
2023/09/21 13:53:27;;;;;;;13.32;4.57;;;;;;;;;;10458315;27;21146;-64
2023/09/21 13:58:25;;;;;;;9.13;4.35;;;;;;;;;;10460310;27;20086;-65
2023/09/21 14:03:23;;;;;;;14.75;4.40;;;;;;;;;;10458890;27;20062;-66
2023/09/21 14:08:22;;;;;;;13.90;4.55;;;;;;;;;;10462084;27;20101;-65
2023/09/21 14:13:22;;;;;;;13.23;4.82;;;;;;;;;;10462076;27;20074;-65
2023/09/21 14:18:20;;;;;;;9.35;4.35;;;;;;;;;;10457294;27;20070;-64
2023/09/21 14:23:18;;;;;;;17.45;5.38;;;;;;;;;;10461841;27;20078;-65
2023/09/21 14:28:16;;;;;;;14.55;4.97;;;;;;;;;;10457637;27;20078;-66
2023/09/21 14:33:16;;;;;;;14.48;4.57;;;;;;;;;;10463714;27;20066;-64
2023/09/21 14:38:15;;;;;;;13.32;4.80;;;;;;;;;;10459378;27;20071;-65
2023/09/21 14:43:13;;;;;;;9.60;4.38;;;;;;;;;;10456507;27;20082;-64
2023/09/21 14:48:12;;;;;;;11.75;5.03;;;;;;;;;;10456030;27;20295;-65
2023/09/21 14:53:12;;;;;;;8.75;4.53;;;;;;;;;;10454139;27;20069;-66
2023/09/21 14:58:11;;;;;;;12.55;6.05;;;;;;;;;;10439504;27;20074;-67
2023/09/21 15:03:09;;;;;;;10.90;5.78;;;;;;;;;;10459057;27;20059;-66
2023/09/21 15:08:07;;;;;;;12.18;6.03;;;;;;;;;;10455623;27;20526;-66
2023/09/21 15:13:13;;;;;;;9.82;5.38;;;;;;;;;;10455187;27;20085;-66
2023/09/21 15:18:11;;;;;;;16.38;5.68;;;;;;;;;;10441295;27;20078;-68
2023/09/21 15:23:13;;;;;;;15.07;7.03;;;;;;;;;;10458420;27;20471;-67
2023/09/21 15:28:12;;;;;;;14.98;5.55;;;;;;;;;;10455880;27;20074;-68
2023/09/21 15:33:11;;;;;;;13.35;5.55;;;;;;;;;;10454867;27;20085;-66
2023/09/21 15:38:29;;;;;;;16.23;4.90;;;;;;;;;;10453135;27;20077;-67
2023/09/21 15:43:31;;;;;;;14.18;5.70;;;;;;;;;;10457960;27;20490;-67
2023/09/21 15:48:32;;;;;;;9.95;6.13;;;;;;;;;;10436644;27;20062;-67
2023/09/21 15:53:32;;;;;;;17.58;8.60;;;;;;;;;;10457060;27;20097;-67
2023/09/21 15:58:32;;;;;;;23.25;7.80;;;;;;;;;;10455938;27;20068;-67
2023/09/21 16:03:31;;;;;;;14.57;8.32;;;;;;;;;;10456712;27;20463;-66
2023/09/21 16:08:30;;;;;;;19.75;9.00;;;;;;;;;;10458078;27;20059;-68
2023/09/21 16:13:28;;;;;;;15.15;6.70;;;;;;;;;;10454717;27;20066;-68
2023/09/21 16:18:28;;;;;;;14.75;6.40;;;;;;;;;;10450675;27;20067;-67
2023/09/21 16:23:27;;;;;;;20.95;5.95;;;;;;;;;;10456206;27;20062;-69
2023/09/21 16:28:30;;;;;;;17.77;6.05;;;;;;;;;;10454972;27;20534;-68
2023/09/21 16:33:30;;;;;;;17.27;6.72;;;;;;;;;;10448538;27;20074;-68
2023/09/21 16:38:29;;;;;;;19.75;6.57;;;;;;;;;;10452174;27;20126;-67
2023/09/21 16:43:27;;;;;;;12.60;5.72;;;;;;;;;;10458267;27;20071;-68
2023/09/21 16:48:25;;;;;;;11.98;6.45;;;;;;;;;;10454239;27;20093;-67
2023/09/21 16:53:25;;;;;;;9.60;5.32;;;;;;;;;;10454989;27;20150;-67
2023/09/21 16:58:23;;;;;;;14.68;6.05;;;;;;;;;;10456802;27;20070;-66
2023/09/21 17:03:22;;;;;;;11.32;5.88;;;;;;;;;;10455485;27;20059;-67
2023/09/21 17:08:21;;;;;;;12.65;6.40;;;;;;;;;;10462601;27;20063;-68
2023/09/21 17:13:20;;;;;;;20.10;6.57;;;;;;;;;;10455654;27;20486;-67
2023/09/21 17:18:19;;;;;;;12.35;5.85;;;;;;;;;;10459654;27;20109;-67
2023/09/21 17:23:17;;;;;;;14.90;5.50;;;;;;;;;;10455428;27;20081;-67
2023/09/21 17:28:15;;;;;;;16.17;6.03;;;;;;;;;;10459525;27;20082;-67
2023/09/21 17:33:15;;;;;;;17.13;6.57;;;;;;;;;;10446605;27;20536;-67
2023/09/21 17:38:16;;;;;;;14.25;6.75;;;;;;;;;;10460270;27;20066;-67
2023/09/21 17:43:14;;;;;;;16.15;6.60;;;;;;;;;;10456852;27;20086;-67
2023/09/21 17:48:13;;;;;;;10.75;5.32;;;;;;;;;;10466707;27;20058;-67
2023/09/21 17:53:28;;;;;;;11.67;5.53;;;;;;;;;;10461384;27;20432;-67
2023/09/21 17:58:26;;;;;;;11.82;4.75;;;;;;;;;;10458443;27;20112;-65
2023/09/21 18:03:25;;;;;;;7.93;5.20;;;;;;;;;;10454484;27;20063;-65
2023/09/21 18:08:27;;;;;;;20.30;5.50;;;;;;;;;;10457815;27;20075;-65
2023/09/21 18:13:26;;;;;;;5.43;4.32;;;;;;;;;;10461029;27;20074;-65
2023/09/21 18:18:24;;;;;;;8.85;4.97;;;;;;;;;;10459979;27;20055;-65
2023/09/21 18:23:23;;;;;;;10.43;6.22;;;;;;;;;;10459470;27;20070;-65
2023/09/21 18:28:21;;;;;;;7.15;6.32;;;;;;;;;;10453961;27;20077;-64
2023/09/21 18:33:21;;;;;;;10.05;4.70;;;;;;;;;;10458623;27;20128;-64
2023/09/21 18:38:22;;;;;;;8.38;5.30;;;;;;;;;;10461349;27;20070;-65
2023/09/21 18:43:21;;;;;;;11.23;5.72;;;;;;;;;;10456844;27;20503;-65
2023/09/21 18:48:21;;;;;;;9.50;4.95;;;;;;;;;;10455735;27;20067;-65
2023/09/21 18:53:19;;;;;;;14.27;4.68;;;;;;;;;;10457109;27;20066;-65
2023/09/21 18:58:18;;;;;;;10.02;4.03;;;;;;;;;;10454513;27;20525;-66
2023/09/21 19:03:16;;;;;;;7.68;4.00;;;;;;;;;;10455764;27;20070;-65
2023/09/21 19:08:16;;;;;;;7.15;4.47;;;;;;;;;;10455753;27;20490;-65
2023/09/21 19:13:14;;;;;;;15.35;4.85;;;;;;;;;;10457854;27;20066;-65
2023/09/21 19:18:12;;;;;;;13.43;3.92;;;;;;;;;;10458426;27;20075;-65
2023/09/21 19:23:11;;;;;;;13.07;6.07;;;;;;;;;;10450582;27;20063;-65
2023/09/21 19:28:10;;;;;;;13.48;5.45;;;;;;;;;;10453499;27;20092;-66
2023/09/21 19:33:09;;;;;;;13.25;6.20;;;;;;;;;;10456452;27;20074;-67
2023/09/21 19:38:07;;;;;;;9.68;4.93;;;;;;;;;;10454945;27;20066;-66
2023/09/21 19:43:05;;;;;;;9.63;5.15;;;;;;;;;;10456593;27;20511;-67
2023/09/21 19:48:05;;;;;;;11.48;5.03;;;;;;;;;;10457570;27;20058;-67
2023/09/21 19:53:04;;;;;;;12.40;5.43;;;;;;;;;;10452078;27;20090;-66
2023/09/21 19:58:03;;;;;;;10.15;5.80;;;;;;;;;;10452896;27;20086;-66
2023/09/21 20:03:02;;;;;;;11.27;8.25;;;;;;;;;;10453617;27;20078;-65
2023/09/21 20:08:01;;;;;;;7.22;4.00;;;;;;;;;;10452983;27;20047;-66
2023/09/21 20:13:00;;;;;;;4.10;3.33;;;;;;;;;;10455275;27;20067;-67
2023/09/21 20:17:58;;;;;;;9.10;4.00;;;;;;;;;;10454572;27;20101;-65
2023/09/21 20:22:56;;;;;;;7.53;4.10;;;;;;;;;;10451385;27;20075;-66
2023/09/21 20:27:56;;;;;;;5.88;3.47;;;;;;;;;;10454581;27;20078;-66
2023/09/21 20:32:54;;;;;;;5.35;3.92;;;;;;;;;;10453435;27;20074;-65
2023/09/21 20:37:53;;;;;;;6.07;4.43;;;;;;;;;;10454638;27;20070;-66
2023/09/21 20:42:51;;;;;;;8.50;4.18;;;;;;;;;;10453657;27;20701;-65
2023/09/21 20:47:51;;;;;;;7.43;3.80;;;;;;;;;;10453447;27;20069;-66
2023/09/21 20:52:49;;;;;;;5.50;4.38;;;;;;;;;;10455107;27;20573;-65
2023/09/21 20:57:47;;;;;;;5.18;4.63;;;;;;;;;;10451747;27;20490;-66
2023/09/21 21:02:46;;;;;;;6.15;4.15;;;;;;;;;;10450609;27;20074;-66
2023/09/21 21:07:46;;;;;;;11.43;4.57;;;;;;;;;;10446614;27;20067;-66
2023/09/21 21:12:44;;;;;;;4.93;3.60;;;;;;;;;;10455444;27;20062;-67
2023/09/21 21:17:42;;;;;;;5.13;4.20;;;;;;;;;;10454998;27;20107;-66
2023/09/21 21:22:41;;;;;;;8.07;4.10;;;;;;;;;;10458655;27;20074;-67
2023/09/21 21:27:41;;;;;;;7.07;4.10;;;;;;;;;;10459844;27;20474;-66
2023/09/21 21:32:39;;;;;;;5.10;4.47;;;;;;;;;;10454647;27;20082;-66
2023/09/21 21:37:37;;;;;;;4.95;4.18;;;;;;;;;;10449282;27;20078;-66
2023/09/21 21:42:35;;;;;;;4.03;3.35;;;;;;;;;;10452680;27;20098;-66
2023/09/21 21:47:35;;;;;;;4.43;3.90;;;;;;;;;;10446648;27;20077;-66
2023/09/21 21:52:33;;;;;;;7.70;4.22;;;;;;;;;;10429209;27;20070;-66
2023/09/21 21:57:32;;;;;;;7.35;4.43;;;;;;;;;;10453377;27;20511;-66
2023/09/21 22:02:30;;;;;;;6.78;4.22;;;;;;;;;;10461441;27;20070;-65
2023/09/21 22:07:30;;;;;;;7.65;4.05;;;;;;;;;;10460659;27;20494;-66
2023/09/21 22:12:30;;;;;;;4.43;4.00;;;;;;;;;;10459520;27;20058;-66
2023/09/21 22:17:31;;;;;;;6.78;3.90;;;;;;;;;;10459669;27;20073;-66
2023/09/21 22:22:31;;;;;;;6.43;4.20;;;;;;;;;;10458679;27;20227;-66
2023/09/21 22:27:29;;;;;;;6.25;5.00;;;;;;;;;;10456424;27;20071;-65
2023/09/21 22:32:28;;;;;;;8.65;4.15;;;;;;;;;;10457808;27;20070;-65
2023/09/21 22:37:26;;;;;;;11.40;4.38;;;;;;;;;;10452520;27;20059;-66
2023/09/21 22:42:26;;;;;;;9.02;4.47;;;;;;;;;;10458765;27;20067;-66
2023/09/21 22:47:44;;;;;;;4.95;4.32;;;;;;;;;;10459994;27;20071;-66
2023/09/21 22:52:46;;;;;;;6.60;3.97;;;;;;;;;;10453315;27;20074;-65
2023/09/21 22:57:47;;;;;;;6.65;4.07;;;;;;;;;;10459878;27;20043;-66
2023/09/21 23:02:45;;;;;;;7.40;4.45;;;;;;;;;;10452548;27;20074;-66
2023/09/21 23:07:44;;;;;;;4.35;3.95;;;;;;;;;;10456269;27;20804;-66
2023/09/21 23:12:43;;;;;;;4.55;4.13;;;;;;;;;;10455708;27;20066;-67
2023/09/21 23:17:42;;;;;;;4.97;3.80;;;;;;;;;;10457989;27;20069;-66
2023/09/21 23:22:41;;;;;;;5.57;3.72;;;;;;;;;;10453229;27;20467;-66
2023/09/21 23:27:40;;;;;;;6.03;4.10;;;;;;;;;;10456005;27;20070;-66
2023/09/21 23:32:39;;;;;;;5.32;3.90;;;;;;;;;;10454432;27;20071;-64
2023/09/21 23:37:39;;;;;;;9.45;4.15;;;;;;;;;;10454655;27;20483;-65
2023/09/21 23:42:40;;;;;;;5.15;4.50;;;;;;;;;;10454526;27;20163;-65
2023/09/21 23:47:39;;;;;;;7.07;4.18;;;;;;;;;;10455875;27;20058;-65
2023/09/21 23:52:39;;;;;;;7.47;4.45;;;;;;;;;;10456103;27;20089;-66
2023/09/21 23:57:38;;;;;;;9.40;4.50;;;;;;;;;;10453412;27;20062;-65
